sensor_id;sensor_type;location;lat;lon;timestamp;P1;durP1;ratioP1;P2;durP2;ratioP2
2618;SDS011;1319;52.346;13.096;2023-07-02T00:01:02;2.53;;;2.33;;
2618;SDS011;1319;52.346;13.096;2023-07-02T00:03:27;2.07;;;1.93;;
2618;SDS011;1319;52.346;13.096;2023-07-02T00:05:52;3.77;;;2.13;;
2618;SDS011;1319;52.346;13.096;2023-07-02T00:08:19;2.50;;;2.40;;
2618;SDS011;1319;52.346;13.096;2023-07-02T00:10:45;2.20;;;1.93;;
2618;SDS011;1319;52.346;13.096;2023-07-02T00:13:10;2.37;;;2.17;;
2618;SDS011;1319;52.346;13.096;2023-07-02T00:15:35;2.70;;;2.50;;
2618;SDS011;1319;52.346;13.096;2023-07-02T00:18:00;2.20;;;2.10;;
2618;SDS011;1319;52.346;13.096;2023-07-02T00:20:25;4.33;;;2.50;;
2618;SDS011;1319;52.346;13.096;2023-07-02T00:22:51;2.50;;;2.23;;
2618;SDS011;1319;52.346;13.096;2023-07-02T00:25:16;3.00;;;2.50;;
2618;SDS011;1319;52.346;13.096;2023-07-02T00:27:41;2.80;;;2.70;;
2618;SDS011;1319;52.346;13.096;2023-07-02T00:30:07;2.70;;;2.43;;
2618;SDS011;1319;52.346;13.096;2023-07-02T00:32:32;3.03;;;2.80;;
2618;SDS011;1319;52.346;13.096;2023-07-02T00:34:58;4.50;;;3.00;;
2618;SDS011;1319;52.346;13.096;2023-07-02T00:37:24;3.40;;;3.10;;
2618;SDS011;1319;52.346;13.096;2023-07-02T00:39:49;6.17;;;3.10;;
2618;SDS011;1319;52.346;13.096;2023-07-02T00:42:14;3.80;;;2.97;;
2618;SDS011;1319;52.346;13.096;2023-07-02T00:44:39;3.27;;;2.90;;
2618;SDS011;1319;52.346;13.096;2023-07-02T00:47:06;3.27;;;3.07;;
2618;SDS011;1319;52.346;13.096;2023-07-02T00:49:32;3.53;;;3.23;;
2618;SDS011;1319;52.346;13.096;2023-07-02T00:51:57;3.40;;;3.20;;
2618;SDS011;1319;52.346;13.096;2023-07-02T00:54:22;3.10;;;2.90;;
2618;SDS011;1319;52.346;13.096;2023-07-02T00:56:47;3.40;;;3.10;;
2618;SDS011;1319;52.346;13.096;2023-07-02T00:59:12;3.80;;;3.57;;
2618;SDS011;1319;52.346;13.096;2023-07-02T01:01:38;4.30;;;3.90;;
2618;SDS011;1319;52.346;13.096;2023-07-02T01:04:04;5.67;;;3.57;;
2618;SDS011;1319;52.346;13.096;2023-07-02T01:06:30;3.80;;;3.43;;
2618;SDS011;1319;52.346;13.096;2023-07-02T01:08:57;3.90;;;3.50;;
2618;SDS011;1319;52.346;13.096;2023-07-02T01:13:59;4.40;;;4.00;;
2618;SDS011;1319;52.346;13.096;2023-07-02T01:16:25;3.83;;;3.40;;
2618;SDS011;1319;52.346;13.096;2023-07-02T01:18:50;4.63;;;3.60;;
2618;SDS011;1319;52.346;13.096;2023-07-02T01:21:19;4.00;;;3.70;;
2618;SDS011;1319;52.346;13.096;2023-07-02T01:23:44;5.97;;;3.77;;
2618;SDS011;1319;52.346;13.096;2023-07-02T01:26:10;4.77;;;4.30;;
2618;SDS011;1319;52.346;13.096;2023-07-02T01:28:35;6.83;;;4.20;;
2618;SDS011;1319;52.346;13.096;2023-07-02T01:31:02;5.67;;;4.43;;
2618;SDS011;1319;52.346;13.096;2023-07-02T01:33:28;5.10;;;4.70;;
2618;SDS011;1319;52.346;13.096;2023-07-02T01:35:53;8.73;;;4.40;;
2618;SDS011;1319;52.346;13.096;2023-07-02T01:38:18;4.57;;;4.27;;
2618;SDS011;1319;52.346;13.096;2023-07-02T01:40:43;4.83;;;4.43;;
2618;SDS011;1319;52.346;13.096;2023-07-02T01:43:09;6.10;;;4.50;;
2618;SDS011;1319;52.346;13.096;2023-07-02T01:45:34;5.53;;;4.53;;
2618;SDS011;1319;52.346;13.096;2023-07-02T01:47:59;4.97;;;4.47;;
2618;SDS011;1319;52.346;13.096;2023-07-02T01:50:24;6.30;;;4.40;;
2618;SDS011;1319;52.346;13.096;2023-07-02T01:52:49;5.30;;;4.33;;
2618;SDS011;1319;52.346;13.096;2023-07-02T01:55:15;5.67;;;4.57;;
2618;SDS011;1319;52.346;13.096;2023-07-02T01:57:42;4.90;;;4.40;;
2618;SDS011;1319;52.346;13.096;2023-07-02T02:00:07;4.60;;;4.20;;
2618;SDS011;1319;52.346;13.096;2023-07-02T02:02:34;7.87;;;4.23;;
2618;SDS011;1319;52.346;13.096;2023-07-02T02:04:59;4.50;;;4.20;;
2618;SDS011;1319;52.346;13.096;2023-07-02T02:07:24;6.97;;;4.23;;
2618;SDS011;1319;52.346;13.096;2023-07-02T02:09:50;8.07;;;4.63;;
2618;SDS011;1319;52.346;13.096;2023-07-02T02:12:16;4.80;;;4.40;;
2618;SDS011;1319;52.346;13.096;2023-07-02T02:14:41;4.37;;;3.97;;
2618;SDS011;1319;52.346;13.096;2023-07-02T02:17:06;6.47;;;4.20;;
2618;SDS011;1319;52.346;13.096;2023-07-02T02:19:31;6.93;;;4.33;;
2618;SDS011;1319;52.346;13.096;2023-07-02T02:21:57;4.47;;;4.07;;
2618;SDS011;1319;52.346;13.096;2023-07-02T02:24:22;6.23;;;4.20;;
2618;SDS011;1319;52.346;13.096;2023-07-02T02:26:47;4.77;;;4.20;;
2618;SDS011;1319;52.346;13.096;2023-07-02T02:29:12;7.03;;;4.50;;
2618;SDS011;1319;52.346;13.096;2023-07-02T02:31:38;8.37;;;4.40;;
2618;SDS011;1319;52.346;13.096;2023-07-02T02:34:03;6.67;;;4.47;;
2618;SDS011;1319;52.346;13.096;2023-07-02T02:36:28;5.87;;;4.50;;
2618;SDS011;1319;52.346;13.096;2023-07-02T02:38:53;6.30;;;4.30;;
2618;SDS011;1319;52.346;13.096;2023-07-02T02:41:19;4.73;;;4.33;;
2618;SDS011;1319;52.346;13.096;2023-07-02T02:43:44;5.03;;;4.63;;
2618;SDS011;1319;52.346;13.096;2023-07-02T02:46:10;5.20;;;4.80;;
2618;SDS011;1319;52.346;13.096;2023-07-02T02:48:36;5.87;;;4.60;;
2618;SDS011;1319;52.346;13.096;2023-07-02T02:51:01;6.43;;;4.30;;
2618;SDS011;1319;52.346;13.096;2023-07-02T02:53:26;4.73;;;4.30;;
2618;SDS011;1319;52.346;13.096;2023-07-02T02:55:51;6.43;;;4.53;;
2618;SDS011;1319;52.346;13.096;2023-07-02T02:58:17;4.87;;;4.43;;
2618;SDS011;1319;52.346;13.096;2023-07-02T03:00:42;7.23;;;4.17;;
2618;SDS011;1319;52.346;13.096;2023-07-02T03:03:10;6.37;;;4.57;;
2618;SDS011;1319;52.346;13.096;2023-07-02T03:05:35;7.60;;;4.20;;
2618;SDS011;1319;52.346;13.096;2023-07-02T03:08:00;4.60;;;3.80;;
2618;SDS011;1319;52.346;13.096;2023-07-02T03:10:26;5.00;;;4.50;;
2618;SDS011;1319;52.346;13.096;2023-07-02T03:12:51;7.00;;;3.80;;
2618;SDS011;1319;52.346;13.096;2023-07-02T03:15:16;6.93;;;3.97;;
2618;SDS011;1319;52.346;13.096;2023-07-02T03:17:42;8.43;;;4.10;;
2618;SDS011;1319;52.346;13.096;2023-07-02T03:20:07;4.50;;;3.87;;
2618;SDS011;1319;52.346;13.096;2023-07-02T03:22:33;5.90;;;3.97;;
2618;SDS011;1319;52.346;13.096;2023-07-02T03:24:58;5.63;;;3.60;;
2618;SDS011;1319;52.346;13.096;2023-07-02T03:27:23;3.83;;;3.53;;
2618;SDS011;1319;52.346;13.096;2023-07-02T03:29:48;6.30;;;4.00;;
2618;SDS011;1319;52.346;13.096;2023-07-02T03:32:14;6.47;;;3.53;;
2618;SDS011;1319;52.346;13.096;2023-07-02T03:34:39;4.57;;;3.60;;
2618;SDS011;1319;52.346;13.096;2023-07-02T03:37:04;3.83;;;3.50;;
2618;SDS011;1319;52.346;13.096;2023-07-02T03:39:29;9.47;;;3.40;;
2618;SDS011;1319;52.346;13.096;2023-07-02T03:41:55;5.30;;;3.63;;
2618;SDS011;1319;52.346;13.096;2023-07-02T03:44:20;6.23;;;3.30;;
2618;SDS011;1319;52.346;13.096;2023-07-02T03:46:45;3.70;;;3.43;;
2618;SDS011;1319;52.346;13.096;2023-07-02T03:49:10;5.57;;;3.37;;
2618;SDS011;1319;52.346;13.096;2023-07-02T03:51:35;3.60;;;3.23;;
2618;SDS011;1319;52.346;13.096;2023-07-02T03:54:01;4.13;;;3.30;;
2618;SDS011;1319;52.346;13.096;2023-07-02T03:56:26;3.80;;;3.50;;
2618;SDS011;1319;52.346;13.096;2023-07-02T03:58:52;3.83;;;3.47;;
2618;SDS011;1319;52.346;13.096;2023-07-02T04:01:17;4.67;;;3.40;;
2618;SDS011;1319;52.346;13.096;2023-07-02T04:03:49;4.53;;;3.20;;
2618;SDS011;1319;52.346;13.096;2023-07-02T04:06:14;3.70;;;3.40;;
2618;SDS011;1319;52.346;13.096;2023-07-02T04:08:39;8.57;;;3.40;;
2618;SDS011;1319;52.346;13.096;2023-07-02T04:11:05;6.77;;;3.60;;
2618;SDS011;1319;52.346;13.096;2023-07-02T04:13:30;4.40;;;3.70;;
2618;SDS011;1319;52.346;13.096;2023-07-02T04:15:55;5.43;;;3.30;;
2618;SDS011;1319;52.346;13.096;2023-07-02T04:18:20;4.27;;;3.40;;
2618;SDS011;1319;52.346;13.096;2023-07-02T04:20:45;3.70;;;3.30;;
2618;SDS011;1319;52.346;13.096;2023-07-02T04:23:11;5.77;;;3.57;;
2618;SDS011;1319;52.346;13.096;2023-07-02T04:25:36;3.83;;;3.50;;
2618;SDS011;1319;52.346;13.096;2023-07-02T04:28:01;4.17;;;3.50;;
2618;SDS011;1319;52.346;13.096;2023-07-02T04:30:26;4.17;;;3.50;;
2618;SDS011;1319;52.346;13.096;2023-07-02T04:32:52;7.30;;;3.57;;
2618;SDS011;1319;52.346;13.096;2023-07-02T04:35:17;3.97;;;3.67;;
2618;SDS011;1319;52.346;13.096;2023-07-02T04:37:43;6.17;;;3.40;;
2618;SDS011;1319;52.346;13.096;2023-07-02T04:40:08;3.93;;;3.50;;
2618;SDS011;1319;52.346;13.096;2023-07-02T04:42:41;3.43;;;3.13;;
2618;SDS011;1319;52.346;13.096;2023-07-02T04:45:12;4.20;;;3.20;;
2618;SDS011;1319;52.346;13.096;2023-07-02T04:47:39;4.13;;;3.37;;
2618;SDS011;1319;52.346;13.096;2023-07-02T04:50:04;4.00;;;3.37;;
2618;SDS011;1319;52.346;13.096;2023-07-02T04:52:30;6.60;;;3.07;;
2618;SDS011;1319;52.346;13.096;2023-07-02T04:54:56;4.10;;;3.20;;
2618;SDS011;1319;52.346;13.096;2023-07-02T04:57:21;5.63;;;3.33;;
2618;SDS011;1319;52.346;13.096;2023-07-02T04:59:46;4.60;;;3.07;;
2618;SDS011;1319;52.346;13.096;2023-07-02T05:02:12;3.60;;;3.10;;
2618;SDS011;1319;52.346;13.096;2023-07-02T05:04:37;6.97;;;3.23;;
2618;SDS011;1319;52.346;13.096;2023-07-02T05:07:03;4.57;;;3.00;;
2618;SDS011;1319;52.346;13.096;2023-07-02T05:09:29;7.13;;;3.33;;
2618;SDS011;1319;52.346;13.096;2023-07-02T05:11:54;6.47;;;3.20;;
2618;SDS011;1319;52.346;13.096;2023-07-02T05:14:19;5.07;;;3.27;;
2618;SDS011;1319;52.346;13.096;2023-07-02T05:16:45;3.80;;;3.43;;
2618;SDS011;1319;52.346;13.096;2023-07-02T05:19:10;5.07;;;3.10;;
2618;SDS011;1319;52.346;13.096;2023-07-02T05:21:35;7.43;;;3.00;;
2618;SDS011;1319;52.346;13.096;2023-07-02T05:24:00;3.30;;;3.00;;
2618;SDS011;1319;52.346;13.096;2023-07-02T05:26:26;3.73;;;2.90;;
2618;SDS011;1319;52.346;13.096;2023-07-02T05:28:52;3.87;;;2.97;;
2618;SDS011;1319;52.346;13.096;2023-07-02T05:31:17;7.20;;;3.27;;
2618;SDS011;1319;52.346;13.096;2023-07-02T05:33:42;10.13;;;2.80;;
2618;SDS011;1319;52.346;13.096;2023-07-02T05:36:07;5.47;;;2.73;;
2618;SDS011;1319;52.346;13.096;2023-07-02T05:38:33;5.90;;;3.10;;
2618;SDS011;1319;52.346;13.096;2023-07-02T05:40:58;6.37;;;3.00;;
2618;SDS011;1319;52.346;13.096;2023-07-02T05:43:23;3.20;;;2.80;;
2618;SDS011;1319;52.346;13.096;2023-07-02T05:45:50;4.07;;;3.23;;
2618;SDS011;1319;52.346;13.096;2023-07-02T05:48:15;8.53;;;2.80;;
2618;SDS011;1319;52.346;13.096;2023-07-02T05:50:41;5.43;;;2.93;;
2618;SDS011;1319;52.346;13.096;2023-07-02T05:53:06;7.90;;;2.83;;
2618;SDS011;1319;52.346;13.096;2023-07-02T05:55:31;5.70;;;2.97;;
2618;SDS011;1319;52.346;13.096;2023-07-02T05:57:56;3.07;;;2.83;;
2618;SDS011;1319;52.346;13.096;2023-07-02T06:00:26;6.27;;;3.00;;
2618;SDS011;1319;52.346;13.096;2023-07-02T06:02:51;4.80;;;2.63;;
2618;SDS011;1319;52.346;13.096;2023-07-02T06:05:16;5.47;;;2.63;;
2618;SDS011;1319;52.346;13.096;2023-07-02T06:07:42;4.57;;;2.90;;
2618;SDS011;1319;52.346;13.096;2023-07-02T06:10:07;3.13;;;2.83;;
2618;SDS011;1319;52.346;13.096;2023-07-02T06:12:32;9.77;;;2.80;;
2618;SDS011;1319;52.346;13.096;2023-07-02T06:14:57;7.40;;;2.30;;
2618;SDS011;1319;52.346;13.096;2023-07-02T06:17:23;3.97;;;2.50;;
2618;SDS011;1319;52.346;13.096;2023-07-02T06:19:50;5.47;;;2.80;;
2618;SDS011;1319;52.346;13.096;2023-07-02T06:22:15;4.13;;;2.40;;
2618;SDS011;1319;52.346;13.096;2023-07-02T06:24:40;4.27;;;2.47;;
2618;SDS011;1319;52.346;13.096;2023-07-02T06:27:05;5.57;;;2.87;;
2618;SDS011;1319;52.346;13.096;2023-07-02T06:29:30;5.97;;;2.80;;
2618;SDS011;1319;52.346;13.096;2023-07-02T06:31:56;2.97;;;2.70;;
2618;SDS011;1319;52.346;13.096;2023-07-02T06:34:21;4.60;;;2.90;;
2618;SDS011;1319;52.346;13.096;2023-07-02T06:36:46;6.27;;;3.03;;
2618;SDS011;1319;52.346;13.096;2023-07-02T06:39:11;12.63;;;2.90;;
2618;SDS011;1319;52.346;13.096;2023-07-02T06:41:36;4.43;;;2.97;;
2618;SDS011;1319;52.346;13.096;2023-07-02T06:44:02;3.40;;;2.50;;
2618;SDS011;1319;52.346;13.096;2023-07-02T06:46:27;4.07;;;3.10;;
2618;SDS011;1319;52.346;13.096;2023-07-02T06:48:52;5.93;;;2.70;;
2618;SDS011;1319;52.346;13.096;2023-07-02T06:51:18;3.40;;;2.50;;
2618;SDS011;1319;52.346;13.096;2023-07-02T06:53:44;6.80;;;2.70;;
2618;SDS011;1319;52.346;13.096;2023-07-02T06:56:10;4.40;;;2.43;;
2618;SDS011;1319;52.346;13.096;2023-07-02T06:58:35;3.60;;;2.47;;
2618;SDS011;1319;52.346;13.096;2023-07-02T07:01:00;4.20;;;2.50;;
2618;SDS011;1319;52.346;13.096;2023-07-02T07:03:26;4.67;;;2.53;;
2618;SDS011;1319;52.346;13.096;2023-07-02T07:05:52;4.83;;;2.57;;
2618;SDS011;1319;52.346;13.096;2023-07-02T07:08:17;3.30;;;2.87;;
2618;SDS011;1319;52.346;13.096;2023-07-02T07:10:43;7.87;;;3.00;;
2618;SDS011;1319;52.346;13.096;2023-07-02T07:13:10;3.27;;;2.97;;
2618;SDS011;1319;52.346;13.096;2023-07-02T07:15:35;7.53;;;2.60;;
2618;SDS011;1319;52.346;13.096;2023-07-02T07:18:01;2.67;;;2.47;;
2618;SDS011;1319;52.346;13.096;2023-07-02T07:20:26;3.37;;;2.83;;
2618;SDS011;1319;52.346;13.096;2023-07-02T07:22:51;3.90;;;2.77;;
2618;SDS011;1319;52.346;13.096;2023-07-02T07:25:17;4.87;;;2.50;;
2618;SDS011;1319;52.346;13.096;2023-07-02T07:27:42;5.97;;;2.93;;
2618;SDS011;1319;52.346;13.096;2023-07-02T07:30:07;4.27;;;2.67;;
2618;SDS011;1319;52.346;13.096;2023-07-02T07:32:32;4.63;;;2.67;;
2618;SDS011;1319;52.346;13.096;2023-07-02T07:34:58;2.70;;;2.50;;
2618;SDS011;1319;52.346;13.096;2023-07-02T07:37:23;6.27;;;2.50;;
2618;SDS011;1319;52.346;13.096;2023-07-02T07:39:50;5.40;;;2.53;;
2618;SDS011;1319;52.346;13.096;2023-07-02T07:42:15;5.83;;;2.77;;
2618;SDS011;1319;52.346;13.096;2023-07-02T07:44:41;3.63;;;2.83;;
2618;SDS011;1319;52.346;13.096;2023-07-02T07:47:07;3.33;;;3.03;;
2618;SDS011;1319;52.346;13.096;2023-07-02T07:49:32;6.53;;;2.73;;
2618;SDS011;1319;52.346;13.096;2023-07-02T07:51:57;3.70;;;2.40;;
2618;SDS011;1319;52.346;13.096;2023-07-02T07:54:22;4.40;;;2.87;;
2618;SDS011;1319;52.346;13.096;2023-07-02T07:56:49;8.20;;;2.60;;
2618;SDS011;1319;52.346;13.096;2023-07-02T07:59:14;7.03;;;3.00;;
2618;SDS011;1319;52.346;13.096;2023-07-02T08:01:40;3.27;;;2.70;;
2618;SDS011;1319;52.346;13.096;2023-07-02T08:04:05;5.93;;;3.17;;
2618;SDS011;1319;52.346;13.096;2023-07-02T08:06:30;3.87;;;3.00;;
2618;SDS011;1319;52.346;13.096;2023-07-02T08:08:56;7.50;;;3.30;;
2618;SDS011;1319;52.346;13.096;2023-07-02T08:11:22;3.80;;;3.40;;
2618;SDS011;1319;52.346;13.096;2023-07-02T08:13:47;4.53;;;3.63;;
2618;SDS011;1319;52.346;13.096;2023-07-02T08:16:12;6.73;;;3.87;;
2618;SDS011;1319;52.346;13.096;2023-07-02T08:18:38;6.77;;;3.80;;
2618;SDS011;1319;52.346;13.096;2023-07-02T08:21:03;6.37;;;4.10;;
2618;SDS011;1319;52.346;13.096;2023-07-02T08:23:31;7.83;;;4.60;;
2618;SDS011;1319;52.346;13.096;2023-07-02T08:25:56;12.33;;;4.80;;
2618;SDS011;1319;52.346;13.096;2023-07-02T08:28:21;6.97;;;4.30;;
2618;SDS011;1319;52.346;13.096;2023-07-02T08:30:46;7.97;;;4.13;;
2618;SDS011;1319;52.346;13.096;2023-07-02T08:33:12;8.90;;;4.80;;
2618;SDS011;1319;52.346;13.096;2023-07-02T08:35:37;12.03;;;4.90;;
2618;SDS011;1319;52.346;13.096;2023-07-02T08:38:02;10.87;;;4.50;;
2618;SDS011;1319;52.346;13.096;2023-07-02T08:40:28;8.30;;;4.40;;
2618;SDS011;1319;52.346;13.096;2023-07-02T08:42:53;9.27;;;4.70;;
2618;SDS011;1319;52.346;13.096;2023-07-02T08:45:19;6.80;;;4.40;;
2618;SDS011;1319;52.346;13.096;2023-07-02T08:47:45;7.53;;;4.10;;
2618;SDS011;1319;52.346;13.096;2023-07-02T08:50:11;7.13;;;4.03;;
2618;SDS011;1319;52.346;13.096;2023-07-02T08:52:36;9.77;;;4.60;;
2618;SDS011;1319;52.346;13.096;2023-07-02T08:55:02;9.93;;;4.73;;
2618;SDS011;1319;52.346;13.096;2023-07-02T08:57:27;6.07;;;4.00;;
2618;SDS011;1319;52.346;13.096;2023-07-02T08:59:52;9.57;;;4.07;;
2618;SDS011;1319;52.346;13.096;2023-07-02T09:02:18;4.87;;;4.07;;
2618;SDS011;1319;52.346;13.096;2023-07-02T09:04:43;7.17;;;4.07;;
2618;SDS011;1319;52.346;13.096;2023-07-02T09:07:09;8.37;;;4.17;;
2618;SDS011;1319;52.346;13.096;2023-07-02T09:09:47;5.90;;;3.80;;
2618;SDS011;1319;52.346;13.096;2023-07-02T09:12:25;7.13;;;4.30;;
2618;SDS011;1319;52.346;13.096;2023-07-02T09:14:57;7.33;;;4.40;;
2618;SDS011;1319;52.346;13.096;2023-07-02T09:17:30;7.67;;;3.77;;
2618;SDS011;1319;52.346;13.096;2023-07-02T09:19:56;8.87;;;3.90;;
2618;SDS011;1319;52.346;13.096;2023-07-02T09:22:22;7.57;;;4.00;;
2618;SDS011;1319;52.346;13.096;2023-07-02T09:24:54;6.50;;;4.20;;
2618;SDS011;1319;52.346;13.096;2023-07-02T09:27:20;7.20;;;3.77;;
2618;SDS011;1319;52.346;13.096;2023-07-02T09:29:49;7.67;;;4.17;;
2618;SDS011;1319;52.346;13.096;2023-07-02T09:32:23;8.07;;;4.57;;
2618;SDS011;1319;52.346;13.096;2023-07-02T09:34:48;5.23;;;4.10;;
2618;SDS011;1319;52.346;13.096;2023-07-02T09:37:13;8.67;;;4.47;;
2618;SDS011;1319;52.346;13.096;2023-07-02T09:39:39;5.33;;;4.33;;
2618;SDS011;1319;52.346;13.096;2023-07-02T09:42:06;7.67;;;4.40;;
2618;SDS011;1319;52.346;13.096;2023-07-02T09:44:33;9.97;;;4.30;;
2618;SDS011;1319;52.346;13.096;2023-07-02T09:47:05;7.23;;;4.50;;
2618;SDS011;1319;52.346;13.096;2023-07-02T09:49:31;7.40;;;4.30;;
2618;SDS011;1319;52.346;13.096;2023-07-02T09:51:58;7.77;;;4.40;;
2618;SDS011;1319;52.346;13.096;2023-07-02T09:54:23;10.37;;;4.77;;
2618;SDS011;1319;52.346;13.096;2023-07-02T09:56:49;7.70;;;4.23;;
2618;SDS011;1319;52.346;13.096;2023-07-02T09:59:14;11.10;;;5.43;;
2618;SDS011;1319;52.346;13.096;2023-07-02T10:01:39;11.87;;;5.50;;
2618;SDS011;1319;52.346;13.096;2023-07-02T10:04:14;9.30;;;5.10;;
2618;SDS011;1319;52.346;13.096;2023-07-02T10:06:46;7.67;;;4.87;;
2618;SDS011;1319;52.346;13.096;2023-07-02T10:09:11;11.57;;;5.17;;
2618;SDS011;1319;52.346;13.096;2023-07-02T10:11:36;13.07;;;6.17;;
2618;SDS011;1319;52.346;13.096;2023-07-02T10:14:02;13.73;;;5.57;;
2618;SDS011;1319;52.346;13.096;2023-07-02T10:16:27;9.33;;;5.37;;
2618;SDS011;1319;52.346;13.096;2023-07-02T10:18:53;12.03;;;5.53;;
2618;SDS011;1319;52.346;13.096;2023-07-02T10:21:18;11.97;;;5.40;;
2618;SDS011;1319;52.346;13.096;2023-07-02T10:23:43;9.65;;;5.25;;
2618;SDS011;1319;52.346;13.096;2023-07-02T10:26:16;9.80;;;5.18;;
2618;SDS011;1319;52.346;13.096;2023-07-02T10:28:41;7.43;;;4.90;;
2618;SDS011;1319;52.346;13.096;2023-07-02T10:31:19;9.82;;;5.60;;
2618;SDS011;1319;52.346;13.096;2023-07-02T10:33:45;11.63;;;5.50;;
2618;SDS011;1319;52.346;13.096;2023-07-02T10:36:17;8.65;;;5.38;;
2618;SDS011;1319;52.346;13.096;2023-07-02T10:38:42;10.82;;;5.50;;
2618;SDS011;1319;52.346;13.096;2023-07-02T10:41:07;10.68;;;5.80;;
2618;SDS011;1319;52.346;13.096;2023-07-02T10:43:33;9.07;;;5.40;;
2618;SDS011;1319;52.346;13.096;2023-07-02T10:45:58;10.55;;;5.40;;
2618;SDS011;1319;52.346;13.096;2023-07-02T10:48:27;14.63;;;5.63;;
2618;SDS011;1319;52.346;13.096;2023-07-02T10:50:52;12.20;;;6.03;;
2618;SDS011;1319;52.346;13.096;2023-07-02T10:53:18;17.70;;;5.90;;
2618;SDS011;1319;52.346;13.096;2023-07-02T10:55:44;19.33;;;5.68;;
2618;SDS011;1319;52.346;13.096;2023-07-02T10:58:09;13.77;;;5.90;;
2618;SDS011;1319;52.346;13.096;2023-07-02T11:00:56;21.13;;;6.28;;
2618;SDS011;1319;52.346;13.096;2023-07-02T11:03:21;15.55;;;6.50;;
2618;SDS011;1319;52.346;13.096;2023-07-02T11:05:47;14.82;;;5.60;;
2618;SDS011;1319;52.346;13.096;2023-07-02T11:08:12;18.95;;;5.82;;
2618;SDS011;1319;52.346;13.096;2023-07-02T11:10:37;19.60;;;5.75;;
2618;SDS011;1319;52.346;13.096;2023-07-02T11:13:16;13.60;;;5.38;;
2618;SDS011;1319;52.346;13.096;2023-07-02T11:15:41;16.17;;;6.18;;
2618;SDS011;1319;52.346;13.096;2023-07-02T11:18:13;17.38;;;5.93;;
2618;SDS011;1319;52.346;13.096;2023-07-02T11:20:39;16.85;;;5.78;;
2618;SDS011;1319;52.346;13.096;2023-07-02T11:23:16;11.63;;;5.97;;
2618;SDS011;1319;52.346;13.096;2023-07-02T11:25:41;15.27;;;6.47;;
2618;SDS011;1319;52.346;13.096;2023-07-02T11:28:06;12.13;;;5.80;;
2618;SDS011;1319;52.346;13.096;2023-07-02T11:30:32;14.23;;;6.03;;
2618;SDS011;1319;52.346;13.096;2023-07-02T11:32:57;16.25;;;5.95;;
2618;SDS011;1319;52.346;13.096;2023-07-02T11:35:33;15.40;;;6.18;;
2618;SDS011;1319;52.346;13.096;2023-07-02T11:37:59;11.18;;;5.40;;
2618;SDS011;1319;52.346;13.096;2023-07-02T11:40:24;16.17;;;5.20;;
2618;SDS011;1319;52.346;13.096;2023-07-02T11:42:49;14.50;;;5.57;;
2618;SDS011;1319;52.346;13.096;2023-07-02T11:45:15;15.73;;;5.80;;
2618;SDS011;1319;52.346;13.096;2023-07-02T11:47:40;14.40;;;5.38;;
2618;SDS011;1319;52.346;13.096;2023-07-02T11:50:05;17.98;;;5.47;;
2618;SDS011;1319;52.346;13.096;2023-07-02T11:52:31;13.32;;;5.65;;
2618;SDS011;1319;52.346;13.096;2023-07-02T11:54:56;14.48;;;5.70;;
2618;SDS011;1319;52.346;13.096;2023-07-02T11:57:21;19.52;;;5.82;;
2618;SDS011;1319;52.346;13.096;2023-07-02T11:59:47;11.75;;;5.72;;
2618;SDS011;1319;52.346;13.096;2023-07-02T12:02:14;14.90;;;5.35;;
2618;SDS011;1319;52.346;13.096;2023-07-02T12:04:39;13.65;;;5.43;;
2618;SDS011;1319;52.346;13.096;2023-07-02T12:07:04;14.20;;;6.07;;
2618;SDS011;1319;52.346;13.096;2023-07-02T12:09:29;15.18;;;6.15;;
2618;SDS011;1319;52.346;13.096;2023-07-02T12:11:55;15.75;;;5.70;;
2618;SDS011;1319;52.346;13.096;2023-07-02T12:14:20;11.60;;;5.38;;
2618;SDS011;1319;52.346;13.096;2023-07-02T12:16:45;13.48;;;5.25;;
2618;SDS011;1319;52.346;13.096;2023-07-02T12:19:10;10.55;;;5.95;;
2618;SDS011;1319;52.346;13.096;2023-07-02T12:21:36;11.57;;;5.57;;
2618;SDS011;1319;52.346;13.096;2023-07-02T12:24:01;20.20;;;5.78;;
2618;SDS011;1319;52.346;13.096;2023-07-02T12:26:27;12.45;;;5.85;;
2618;SDS011;1319;52.346;13.096;2023-07-02T12:28:53;15.13;;;6.32;;
2618;SDS011;1319;52.346;13.096;2023-07-02T12:31:19;22.00;;;5.07;;
2618;SDS011;1319;52.346;13.096;2023-07-02T12:33:44;12.23;;;5.78;;
2618;SDS011;1319;52.346;13.096;2023-07-02T12:36:09;16.35;;;6.03;;
2618;SDS011;1319;52.346;13.096;2023-07-02T12:38:35;12.82;;;5.90;;
2618;SDS011;1319;52.346;13.096;2023-07-02T12:41:00;13.52;;;5.88;;
2618;SDS011;1319;52.346;13.096;2023-07-02T12:43:25;14.88;;;5.88;;
2618;SDS011;1319;52.346;13.096;2023-07-02T12:45:50;10.63;;;6.03;;
2618;SDS011;1319;52.346;13.096;2023-07-02T12:48:16;11.52;;;5.95;;
2618;SDS011;1319;52.346;13.096;2023-07-02T12:50:41;15.25;;;6.03;;
2618;SDS011;1319;52.346;13.096;2023-07-02T12:53:07;18.73;;;6.18;;
2618;SDS011;1319;52.346;13.096;2023-07-02T12:55:32;13.18;;;5.88;;
2618;SDS011;1319;52.346;13.096;2023-07-02T12:57:57;12.10;;;5.82;;
2618;SDS011;1319;52.346;13.096;2023-07-02T13:00:22;19.02;;;6.05;;
2618;SDS011;1319;52.346;13.096;2023-07-02T13:02:48;14.85;;;6.38;;
2618;SDS011;1319;52.346;13.096;2023-07-02T13:05:14;15.20;;;6.40;;
2618;SDS011;1319;52.346;13.096;2023-07-02T13:07:39;17.90;;;6.00;;
2618;SDS011;1319;52.346;13.096;2023-07-02T13:10:04;12.30;;;5.82;;
2618;SDS011;1319;52.346;13.096;2023-07-02T13:12:30;12.45;;;6.20;;
2618;SDS011;1319;52.346;13.096;2023-07-02T13:14:55;11.73;;;6.20;;
2618;SDS011;1319;52.346;13.096;2023-07-02T13:17:20;12.35;;;6.05;;
2618;SDS011;1319;52.346;13.096;2023-07-02T13:19:45;15.60;;;5.90;;
2618;SDS011;1319;52.346;13.096;2023-07-02T13:22:11;11.32;;;6.45;;
2618;SDS011;1319;52.346;13.096;2023-07-02T13:24:36;13.95;;;5.00;;
2618;SDS011;1319;52.346;13.096;2023-07-02T13:27:02;11.65;;;5.93;;
2618;SDS011;1319;52.346;13.096;2023-07-02T13:29:29;10.10;;;5.38;;
2618;SDS011;1319;52.346;13.096;2023-07-02T13:31:54;9.80;;;5.53;;
2618;SDS011;1319;52.346;13.096;2023-07-02T13:34:19;9.30;;;6.22;;
2618;SDS011;1319;52.346;13.096;2023-07-02T13:36:44;19.98;;;6.50;;
2618;SDS011;1319;52.346;13.096;2023-07-02T13:39:09;19.90;;;6.20;;
2618;SDS011;1319;52.346;13.096;2023-07-02T13:41:35;13.27;;;6.15;;
2618;SDS011;1319;52.346;13.096;2023-07-02T13:44:00;11.88;;;5.88;;
2618;SDS011;1319;52.346;13.096;2023-07-02T13:46:25;17.55;;;6.00;;
2618;SDS011;1319;52.346;13.096;2023-07-02T13:48:50;12.32;;;6.05;;
2618;SDS011;1319;52.346;13.096;2023-07-02T13:51:16;14.05;;;6.00;;
2618;SDS011;1319;52.346;13.096;2023-07-02T13:53:41;13.05;;;5.95;;
2618;SDS011;1319;52.346;13.096;2023-07-02T13:56:06;11.15;;;5.90;;
2618;SDS011;1319;52.346;13.096;2023-07-02T14:01:15;8.73;;;4.32;;
2618;SDS011;1319;52.346;13.096;2023-07-02T14:03:40;11.65;;;5.63;;
2618;SDS011;1319;52.346;13.096;2023-07-02T14:06:06;13.88;;;5.70;;
2618;SDS011;1319;52.346;13.096;2023-07-02T14:08:31;17.77;;;6.47;;
2618;SDS011;1319;52.346;13.096;2023-07-02T14:10:56;10.90;;;6.22;;
2618;SDS011;1319;52.346;13.096;2023-07-02T14:13:21;11.70;;;5.90;;
2618;SDS011;1319;52.346;13.096;2023-07-02T14:15:47;15.18;;;6.43;;
2618;SDS011;1319;52.346;13.096;2023-07-02T14:18:12;11.57;;;5.35;;
2618;SDS011;1319;52.346;13.096;2023-07-02T14:20:37;17.33;;;6.35;;
2618;SDS011;1319;52.346;13.096;2023-07-02T14:23:02;15.77;;;6.22;;
2618;SDS011;1319;52.346;13.096;2023-07-02T14:25:27;11.18;;;5.90;;
2618;SDS011;1319;52.346;13.096;2023-07-02T14:27:53;14.10;;;5.80;;
2618;SDS011;1319;52.346;13.096;2023-07-02T14:30:18;10.55;;;5.20;;
2618;SDS011;1319;52.346;13.096;2023-07-02T14:32:43;13.02;;;5.78;;
2618;SDS011;1319;52.346;13.096;2023-07-02T14:35:09;11.63;;;5.25;;
2618;SDS011;1319;52.346;13.096;2023-07-02T14:37:34;18.10;;;5.97;;
2618;SDS011;1319;52.346;13.096;2023-07-02T14:39:59;10.75;;;5.43;;
2618;SDS011;1319;52.346;13.096;2023-07-02T14:42:25;11.60;;;5.28;;
2618;SDS011;1319;52.346;13.096;2023-07-02T14:44:50;13.25;;;5.88;;
2618;SDS011;1319;52.346;13.096;2023-07-02T14:47:15;12.02;;;5.50;;
2618;SDS011;1319;52.346;13.096;2023-07-02T14:49:40;13.93;;;5.25;;
2618;SDS011;1319;52.346;13.096;2023-07-02T14:52:05;9.20;;;5.50;;
2618;SDS011;1319;52.346;13.096;2023-07-02T14:54:31;9.13;;;5.30;;